createdAt,value
2023-03-11T00:01:05.422Z,100985.00
2023-03-11T00:03:38.477Z,100980.00
2023-03-11T00:06:11.558Z,100980.00
2023-03-11T00:08:44.605Z,100985.00
2023-03-11T00:11:17.991Z,100981.00
2023-03-11T00:13:55.293Z,100985.00
2023-03-11T00:16:28.298Z,100977.00
2023-03-11T00:19:01.330Z,100985.00
2023-03-11T00:21:34.309Z,100991.00
2023-03-11T00:24:07.448Z,100973.00
2023-03-11T00:26:40.525Z,100969.00
2023-03-11T00:29:13.532Z,100984.00
2023-03-11T00:31:46.446Z,100985.00
2023-03-11T00:34:19.378Z,100982.00
2023-03-11T00:36:52.530Z,100976.00
2023-03-11T00:39:25.578Z,100985.00
2023-03-11T00:41:58.502Z,100970.00
2023-03-11T00:44:31.971Z,100985.00
2023-03-11T00:47:04.872Z,100973.00
2023-03-11T00:49:38.780Z,100979.00
2023-03-11T00:52:11.657Z,100971.00
2023-03-11T00:54:44.897Z,100969.00
2023-03-11T00:57:17.958Z,100967.00
2023-03-11T00:59:51.026Z,100969.00
2023-03-11T01:02:23.916Z,100962.00
2023-03-11T01:05:00.232Z,100964.00
2023-03-11T01:07:33.124Z,100975.00
2023-03-11T01:10:06.180Z,100974.00
2023-03-11T01:12:39.222Z,100966.00
2023-03-11T01:15:13.152Z,100969.00
2023-03-11T01:17:46.072Z,100978.00
2023-03-11T01:20:19.078Z,100968.00
2023-03-11T01:22:52.009Z,100968.00
2023-03-11T01:25:26.009Z,100961.00
2023-03-11T01:27:59.019Z,100965.00
2023-03-11T01:30:32.741Z,100970.00
2023-03-11T01:33:05.624Z,100960.00
2023-03-11T01:35:38.609Z,100959.00
2023-03-11T01:38:11.441Z,100955.00
2023-03-11T01:40:46.235Z,100957.00
2023-03-11T01:43:41.567Z,100966.00
2023-03-11T01:46:31.620Z,100961.00
2023-03-11T01:49:05.956Z,100954.00
2023-03-11T01:51:43.849Z,100961.00
2023-03-11T01:54:18.559Z,100966.00
2023-03-11T01:56:52.304Z,100951.00
2023-03-11T01:59:27.342Z,100962.00
2023-03-11T02:02:08.266Z,100954.00
2023-03-11T02:04:42.614Z,100953.00
2023-03-11T02:07:16.462Z,100957.00
2023-03-11T02:09:49.609Z,100958.00
2023-03-11T02:12:23.261Z,100972.00
2023-03-11T02:15:00.037Z,100948.00
2023-03-11T02:17:36.157Z,100957.00
2023-03-11T02:20:19.728Z,100960.00
2023-03-11T02:22:53.648Z,100960.00
2023-03-11T02:25:45.672Z,100958.00
2023-03-11T02:28:21.276Z,100960.00
2023-03-11T02:30:56.070Z,100967.00
2023-03-11T02:33:31.334Z,100957.00
2023-03-11T02:36:04.326Z,100960.00
2023-03-11T02:38:37.438Z,100963.00
2023-03-11T02:41:11.447Z,100956.00
2023-03-11T02:43:46.246Z,100943.00
2023-03-11T02:46:19.852Z,100963.00
2023-03-11T02:48:53.831Z,100960.00
2023-03-11T02:51:31.310Z,100957.00
2023-03-11T02:54:05.988Z,100960.00
2023-03-11T02:56:38.948Z,100959.00
2023-03-11T02:59:11.878Z,100951.00
2023-03-11T03:01:44.905Z,100945.00
2023-03-11T03:04:17.777Z,100950.00
2023-03-11T03:06:50.989Z,100940.00
2023-03-11T03:09:24.054Z,100950.00
2023-03-11T03:11:57.074Z,100942.00
2023-03-11T03:14:30.008Z,100945.00
2023-03-11T03:17:05.525Z,100956.00
2023-03-11T03:19:38.798Z,100949.00
2023-03-11T03:22:11.785Z,100948.00
2023-03-11T03:24:44.606Z,100950.00
2023-03-11T03:27:18.079Z,100957.00
2023-03-11T03:29:51.135Z,100964.00
2023-03-11T03:32:24.178Z,100965.00
2023-03-11T03:34:58.369Z,100965.00
2023-03-11T03:37:32.551Z,100961.00
2023-03-11T03:40:07.272Z,100959.00
2023-03-11T03:42:41.252Z,100957.00
2023-03-11T03:45:14.998Z,100967.00
2023-03-11T03:47:48.090Z,100959.00
2023-03-11T03:50:21.510Z,100965.00
2023-03-11T03:52:54.474Z,100973.00
2023-03-11T03:55:27.298Z,100971.00
2023-03-11T03:58:00.222Z,100960.00
2023-03-11T04:00:33.164Z,100957.00
2023-03-11T04:03:06.475Z,100963.00
2023-03-11T04:05:39.471Z,100965.00
2023-03-11T04:08:17.832Z,100969.00
2023-03-11T04:10:52.391Z,100960.00
2023-03-11T04:13:25.316Z,100971.00
2023-03-11T04:15:58.226Z,100965.00
2023-03-11T04:18:31.310Z,100963.00
2023-03-11T04:21:04.349Z,100970.00
2023-03-11T04:23:37.868Z,100958.00
2023-03-11T04:26:11.042Z,100960.00
2023-03-11T04:28:44.053Z,100947.00
2023-03-11T04:31:17.011Z,100963.00
2023-03-11T04:33:50.006Z,100961.00
2023-03-11T04:36:23.055Z,100960.00
2023-03-11T04:38:56.057Z,100969.00
2023-03-11T04:41:29.259Z,100968.00
2023-03-11T04:44:03.214Z,100972.00
2023-03-11T04:49:38.099Z,100973.00
2023-03-11T04:52:11.424Z,100966.00
2023-03-11T04:54:44.377Z,100975.00
2023-03-11T04:57:17.122Z,100977.00
2023-03-11T04:59:49.949Z,100983.00
2023-03-11T05:02:22.834Z,100980.00
2023-03-11T05:04:55.917Z,100985.00
2023-03-11T05:07:29.097Z,100985.00
2023-03-11T05:10:02.024Z,100977.00
2023-03-11T05:12:34.890Z,100989.00
2023-03-11T05:15:08.092Z,100984.00
2023-03-11T05:17:41.209Z,100999.00
2023-03-11T05:20:15.975Z,100992.00
2023-03-11T05:22:49.295Z,100997.00
2023-03-11T05:25:22.463Z,101007.00
2023-03-11T05:27:55.281Z,101011.00
2023-03-11T05:30:29.269Z,101001.00
2023-03-11T05:33:02.228Z,100997.00
2023-03-11T05:35:35.089Z,100997.00
2023-03-11T05:38:12.277Z,100996.00
2023-03-11T05:40:45.132Z,100999.00
2023-03-11T05:43:18.830Z,101016.00
2023-03-11T05:45:51.849Z,101007.00
2023-03-11T05:48:24.941Z,101012.00
2023-03-11T05:50:58.453Z,101016.00
2023-03-11T05:53:31.511Z,101025.00
2023-03-11T05:56:04.892Z,101027.00
2023-03-11T05:58:38.070Z,101020.00
2023-03-11T06:01:14.860Z,101015.00
2023-03-11T06:03:48.607Z,101019.00
2023-03-11T06:06:21.481Z,101025.00
2023-03-11T06:08:55.613Z,101022.00
2023-03-11T06:11:28.879Z,101023.00
2023-03-11T06:14:02.460Z,101022.00
2023-03-11T06:16:35.373Z,101020.00
2023-03-11T06:19:08.552Z,101024.00
2023-03-11T06:21:41.633Z,101023.00
2023-03-11T06:24:14.414Z,101017.00
2023-03-11T06:26:47.787Z,101018.00
2023-03-11T06:29:20.777Z,101022.00
2023-03-11T06:31:53.908Z,101021.00
2023-03-11T06:34:26.961Z,101016.00
2023-03-11T06:37:00.986Z,101020.00
2023-03-11T06:39:34.033Z,101017.00
2023-03-11T06:42:07.128Z,101007.00
2023-03-11T06:44:40.034Z,101019.00
2023-03-11T06:47:13.096Z,101014.00
2023-03-11T06:49:46.080Z,101016.00
2023-03-11T06:52:20.375Z,101022.00
2023-03-11T06:54:53.502Z,101022.00
2023-03-11T06:57:26.695Z,101015.00
2023-03-11T06:59:59.670Z,101011.00
2023-03-11T07:02:32.662Z,101016.00
2023-03-11T07:05:06.051Z,101020.00
2023-03-11T07:07:39.520Z,101025.00
2023-03-11T07:10:15.940Z,101025.00
2023-03-11T07:12:51.063Z,101034.00
2023-03-11T07:15:26.496Z,101027.00
2023-03-11T07:18:02.356Z,101022.00
2023-03-11T07:20:34.170Z,101046.00
2023-03-11T07:23:07.193Z,101036.00
2023-03-11T07:25:40.243Z,101041.00
2023-03-11T07:28:13.265Z,101039.00
2023-03-11T07:30:47.446Z,101042.00
2023-03-11T07:33:25.106Z,101045.00
2023-03-11T07:35:59.269Z,101052.00
2023-03-11T07:38:35.348Z,101057.00
2023-03-11T07:41:12.034Z,101060.00
2023-03-11T07:43:45.833Z,101069.00
2023-03-11T07:46:24.896Z,101078.00
2023-03-11T07:49:01.488Z,101082.00
2023-03-11T07:51:37.696Z,101091.00
2023-03-11T07:54:10.734Z,101092.00
2023-03-11T07:56:44.058Z,101108.00
2023-03-11T07:59:21.196Z,101106.00
2023-03-11T08:01:53.274Z,101106.00
2023-03-11T08:04:26.674Z,101109.00
2023-03-11T08:06:59.682Z,101107.00
2023-03-11T08:09:32.758Z,101110.00
2023-03-11T08:12:06.218Z,101117.00
2023-03-11T08:14:39.209Z,101114.00
2023-03-11T08:17:12.251Z,101113.00
2023-03-11T08:19:45.174Z,101111.00
2023-03-11T08:22:19.963Z,101113.00
2023-03-11T08:24:56.911Z,101114.00
2023-03-11T08:27:31.442Z,101117.00
2023-03-11T08:30:04.761Z,101115.00
2023-03-11T08:32:38.072Z,101117.00
2023-03-11T08:35:11.284Z,101117.00
2023-03-11T08:37:44.716Z,101121.00
2023-03-11T08:40:17.704Z,101119.00
2023-03-11T08:42:50.778Z,101118.00
2023-03-11T08:45:23.833Z,101113.00
2023-03-11T08:47:56.947Z,101129.00
2023-03-11T08:50:29.876Z,101129.00
2023-03-11T08:53:05.130Z,101132.00
2023-03-11T08:55:38.179Z,101122.00
2023-03-11T08:58:11.253Z,101132.00
2023-03-11T09:00:46.560Z,101120.00
2023-03-11T09:03:19.501Z,101132.00
2023-03-11T09:05:52.484Z,101126.00
2023-03-11T09:08:25.313Z,101127.00
2023-03-11T09:10:58.237Z,101130.00
2023-03-11T09:13:31.097Z,101133.00
2023-03-11T09:16:04.334Z,101131.00
2023-03-11T09:18:37.381Z,101130.00
2023-03-11T09:21:10.277Z,101130.00
2023-03-11T09:23:44.482Z,101121.00
2023-03-11T09:26:17.811Z,101114.00
2023-03-11T09:28:51.037Z,101129.00
2023-03-11T09:31:24.554Z,101120.00
2023-03-11T09:33:58.360Z,101115.00
2023-03-11T09:36:31.813Z,101113.00
2023-03-11T09:39:05.460Z,101113.00
2023-03-11T09:41:59.538Z,101112.00
2023-03-11T09:44:49.272Z,101118.00
2023-03-11T09:47:45.140Z,101115.00
2023-03-11T09:50:28.788Z,101124.00
2023-03-11T09:53:25.087Z,101116.00
2023-03-11T09:56:00.266Z,101121.00
2023-03-11T09:58:47.430Z,101112.00
2023-03-11T10:01:22.797Z,101110.00
2023-03-11T10:03:58.041Z,101113.00
2023-03-11T10:06:34.473Z,101115.00
2023-03-11T10:09:41.076Z,101113.00
2023-03-11T10:12:16.445Z,101106.00
2023-03-11T10:15:21.966Z,101106.00
2023-03-11T10:18:14.719Z,101120.00
2023-03-11T10:21:04.744Z,101111.00
2023-03-11T10:24:05.420Z,101113.00
2023-03-11T10:26:40.168Z,101110.00
2023-03-11T10:29:20.902Z,101114.00
2023-03-11T10:32:04.886Z,101117.00
2023-03-11T10:34:55.306Z,101115.00
2023-03-11T10:37:46.591Z,101119.00
2023-03-11T10:40:30.342Z,101113.00
2023-03-11T10:43:20.036Z,101109.00
2023-03-11T10:45:54.271Z,101116.00
2023-03-11T10:48:30.470Z,101104.00
2023-03-11T10:51:11.730Z,101105.00
2023-03-11T10:53:53.122Z,101106.00
2023-03-11T10:56:43.398Z,101108.00
2023-03-11T10:59:30.212Z,101115.00
2023-03-11T11:02:04.781Z,101112.00
2023-03-11T11:04:43.255Z,101123.00
2023-03-11T11:07:35.957Z,101121.00
2023-03-11T11:10:20.560Z,101122.00
2023-03-11T11:12:58.527Z,101123.00
2023-03-11T11:15:36.387Z,101129.00
2023-03-11T11:18:10.821Z,101129.00
2023-03-11T11:20:46.418Z,101123.00
2023-03-11T11:23:21.370Z,101131.00
2023-03-11T11:25:56.407Z,101122.00
2023-03-11T11:28:30.118Z,101130.00
2023-03-11T11:31:05.580Z,101126.00
2023-03-11T11:33:46.527Z,101130.00
2023-03-11T11:36:21.478Z,101131.00
2023-03-11T11:38:55.986Z,101132.00
2023-03-11T11:41:30.716Z,101132.00
2023-03-11T11:44:11.889Z,101132.00
2023-03-11T11:46:46.718Z,101140.00
2023-03-11T11:49:27.752Z,101139.00
2023-03-11T11:52:08.736Z,101146.00
2023-03-11T11:54:58.980Z,101148.00
2023-03-11T11:57:32.435Z,101145.00
2023-03-11T12:00:08.066Z,101144.00
2023-03-11T12:02:49.281Z,101145.00
2023-03-11T12:05:24.251Z,101145.00
2023-03-11T12:08:07.659Z,101148.00
2023-03-11T12:10:45.622Z,101148.00
2023-03-11T12:13:48.093Z,101138.00
2023-03-11T12:16:29.135Z,101143.00
2023-03-11T12:19:16.128Z,101147.00
2023-03-11T12:22:10.392Z,101148.00
2023-03-11T12:25:00.233Z,101146.00
2023-03-11T12:27:41.152Z,101147.00
2023-03-11T12:30:22.047Z,101148.00
2023-03-11T12:32:56.762Z,101152.00
2023-03-11T12:35:38.103Z,101135.00
2023-03-11T12:38:18.353Z,101141.00
2023-03-11T12:40:53.234Z,101141.00
2023-03-11T12:43:37.589Z,101130.00
2023-03-11T12:46:11.534Z,101128.00
2023-03-11T12:49:10.727Z,101124.00
2023-03-11T12:51:45.099Z,101129.00
2023-03-11T12:54:41.583Z,101124.00
2023-03-11T12:57:20.232Z,101128.00
2023-03-11T13:00:24.543Z,101126.00
2023-03-11T13:03:05.686Z,101126.00
2023-03-11T13:05:55.570Z,101130.00
2023-03-11T13:08:33.999Z,101135.00
2023-03-11T13:11:08.379Z,101133.00
2023-03-11T13:13:50.328Z,101134.00
2023-03-11T13:16:28.662Z,101130.00
2023-03-11T13:19:03.316Z,101127.00
2023-03-11T13:21:38.437Z,101119.00
2023-03-11T13:24:29.062Z,101126.00
2023-03-11T13:27:09.961Z,101123.00
2023-03-11T13:29:51.047Z,101129.00
2023-03-11T13:32:34.412Z,101120.00
2023-03-11T13:35:12.897Z,101117.00
2023-03-11T13:38:15.230Z,101108.00
2023-03-11T13:40:49.457Z,101100.00
2023-03-11T13:43:29.762Z,101107.00
2023-03-11T13:46:04.547Z,101104.00
2023-03-11T13:48:48.862Z,101100.00
2023-03-11T13:51:39.140Z,101093.00
2023-03-11T13:54:26.132Z,101103.00
2023-03-11T13:57:01.184Z,101106.00
2023-03-11T13:59:36.713Z,101105.00
2023-03-11T14:02:14.645Z,101101.00
2023-03-11T14:04:55.947Z,101116.00
2023-03-11T14:07:33.664Z,101116.00
2023-03-11T14:10:17.846Z,101119.00
2023-03-11T14:12:51.086Z,101118.00
2023-03-11T14:15:28.856Z,101121.00
2023-03-11T14:18:03.617Z,101109.00
2023-03-11T14:20:36.658Z,101104.00
2023-03-11T14:23:12.260Z,101108.00
2023-03-11T14:25:45.281Z,101110.00
2023-03-11T14:28:24.891Z,101103.00
2023-03-11T14:31:02.966Z,101099.00
2023-03-11T14:33:36.038Z,101100.00
2023-03-11T14:36:10.111Z,101091.00
2023-03-11T14:38:44.987Z,101096.00
2023-03-11T14:41:18.873Z,101092.00
2023-03-11T14:43:55.900Z,101102.00
2023-03-11T14:46:30.840Z,101102.00
2023-03-11T14:49:05.467Z,101100.00
2023-03-11T14:51:39.538Z,101096.00
2023-03-11T14:54:14.403Z,101091.00
2023-03-11T14:56:49.525Z,101089.00
2023-03-11T14:59:28.420Z,101095.00
2023-03-11T15:02:03.881Z,101091.00
2023-03-11T15:04:39.835Z,101093.00
2023-03-11T15:07:12.871Z,101102.00
2023-03-11T15:09:46.779Z,101088.00
2023-03-11T15:12:39.184Z,101096.00
2023-03-11T15:15:30.484Z,101085.00
2023-03-11T15:18:06.502Z,101091.00
2023-03-11T15:20:40.949Z,101085.00
2023-03-11T15:23:16.110Z,101078.00
2023-03-11T15:25:51.151Z,101074.00
2023-03-11T15:28:34.993Z,101078.00
2023-03-11T15:31:28.236Z,101074.00
2023-03-11T15:34:02.779Z,101078.00
2023-03-11T15:36:37.702Z,101080.00
2023-03-11T15:39:19.724Z,101081.00
2023-03-11T15:42:11.120Z,101084.00
2023-03-11T15:44:45.730Z,101085.00
2023-03-11T15:47:20.195Z,101085.00
2023-03-11T15:49:53.814Z,101083.00
2023-03-11T15:52:26.761Z,101084.00
2023-03-11T15:55:00.036Z,101077.00
2023-03-11T15:57:34.183Z,101081.00
2023-03-11T16:00:07.966Z,101081.00
2023-03-11T16:02:40.966Z,101078.00
2023-03-11T16:05:32.066Z,101079.00
2023-03-11T16:08:04.976Z,101069.00
2023-03-11T16:10:38.552Z,101072.00
2023-03-11T16:13:12.580Z,101071.00
2023-03-11T16:15:45.722Z,101075.00
2023-03-11T16:18:18.663Z,101059.00
2023-03-11T16:20:56.153Z,101067.00
2023-03-11T16:23:34.041Z,101064.00
2023-03-11T16:26:05.860Z,101071.00
2023-03-11T16:28:38.848Z,101068.00
2023-03-11T16:31:12.421Z,101072.00
2023-03-11T16:33:45.556Z,101076.00
2023-03-11T16:36:18.444Z,101068.00
2023-03-11T16:38:53.154Z,101077.00
2023-03-11T16:41:26.200Z,101072.00
2023-03-11T16:43:59.132Z,101071.00
2023-03-11T16:46:32.135Z,101073.00
2023-03-11T16:49:05.315Z,101079.00
2023-03-11T16:51:38.390Z,101081.00
2023-03-11T16:54:11.870Z,101079.00
2023-03-11T16:56:44.946Z,101079.00
2023-03-11T16:59:18.111Z,101073.00
2023-03-11T17:01:52.047Z,101075.00
2023-03-11T17:04:25.114Z,101086.00
2023-03-11T17:06:58.072Z,101081.00
2023-03-11T17:09:31.159Z,101091.00
2023-03-11T17:12:03.990Z,101083.00
2023-03-11T17:14:36.899Z,101086.00
2023-03-11T17:17:09.887Z,101087.00
2023-03-11T17:19:46.414Z,101083.00
2023-03-11T17:22:19.754Z,101089.00
2023-03-11T17:24:52.710Z,101088.00
2023-03-11T17:27:25.632Z,101093.00
2023-03-11T17:29:59.677Z,101092.00
2023-03-11T17:32:33.404Z,101096.00
2023-03-11T17:35:06.456Z,101100.00
2023-03-11T17:37:39.470Z,101104.00
2023-03-11T17:40:13.199Z,101090.00
2023-03-11T17:42:46.159Z,101100.00
2023-03-11T17:45:19.570Z,101101.00
2023-03-11T17:47:52.705Z,101103.00
2023-03-11T17:50:25.715Z,101115.00
2023-03-11T17:52:58.690Z,101107.00
2023-03-11T17:55:31.671Z,101101.00
2023-03-11T17:58:04.636Z,101110.00
2023-03-11T18:00:37.588Z,101103.00
2023-03-11T18:03:11.084Z,101100.00
2023-03-11T18:05:45.350Z,101102.00
2023-03-11T18:08:18.275Z,101102.00
2023-03-11T18:10:54.939Z,101100.00
2023-03-11T18:13:27.883Z,101104.00
2023-03-11T18:16:08.384Z,101107.00
2023-03-11T18:18:41.948Z,101108.00
2023-03-11T18:21:16.901Z,101108.00
2023-03-11T18:23:50.469Z,101107.00
2023-03-11T18:26:23.824Z,101115.00
2023-03-11T18:29:04.279Z,101111.00
2023-03-11T18:31:37.513Z,101116.00
2023-03-11T18:34:12.197Z,101116.00
2023-03-11T18:36:45.863Z,101119.00
2023-03-11T18:39:18.866Z,101131.00
2023-03-11T18:41:51.881Z,101118.00
2023-03-11T18:44:24.917Z,101112.00
2023-03-11T18:46:57.822Z,101116.00
2023-03-11T18:49:31.160Z,101125.00
2023-03-11T18:52:04.217Z,101127.00
2023-03-11T18:54:37.469Z,101121.00
2023-03-11T18:57:10.611Z,101126.00
2023-03-11T18:59:43.679Z,101137.00
2023-03-11T19:02:17.180Z,101138.00
2023-03-11T19:04:50.743Z,101143.00
2023-03-11T19:07:25.110Z,101136.00
2023-03-11T19:09:58.127Z,101144.00
2023-03-11T19:12:32.410Z,101137.00
2023-03-11T19:15:05.318Z,101151.00
2023-03-11T19:17:38.374Z,101152.00
2023-03-11T19:20:12.261Z,101151.00
2023-03-11T19:22:45.130Z,101157.00
2023-03-11T19:25:17.984Z,101151.00
2023-03-11T19:27:51.054Z,101153.00
2023-03-11T19:30:24.389Z,101158.00
2023-03-11T19:32:59.687Z,101164.00
2023-03-11T19:35:32.596Z,101166.00
2023-03-11T19:38:05.840Z,101164.00
2023-03-11T19:40:39.032Z,101173.00
2023-03-11T19:43:12.637Z,101173.00
2023-03-11T19:45:45.429Z,101166.00
2023-03-11T19:48:18.534Z,101168.00
2023-03-11T19:50:52.881Z,101169.00
2023-03-11T19:53:26.418Z,101163.00
2023-03-11T19:56:00.470Z,101174.00
2023-03-11T19:58:34.540Z,101164.00
2023-03-11T20:01:07.288Z,101165.00
2023-03-11T20:03:40.744Z,101167.00
2023-03-11T20:06:15.472Z,101168.00
2023-03-11T20:08:48.894Z,101172.00
2023-03-11T20:11:22.915Z,101164.00
2023-03-11T20:13:55.898Z,101176.00
2023-03-11T20:16:28.949Z,101165.00
2023-03-11T20:19:02.146Z,101164.00
2023-03-11T20:21:35.147Z,101168.00
2023-03-11T20:24:08.802Z,101168.00
2023-03-11T20:26:42.358Z,101163.00
2023-03-11T20:29:19.516Z,101164.00
2023-03-11T20:31:52.692Z,101163.00
2023-03-11T20:34:25.801Z,101168.00
2023-03-11T20:36:58.778Z,101171.00
2023-03-11T20:39:31.724Z,101171.00
2023-03-11T20:42:04.703Z,101164.00
2023-03-11T20:44:37.954Z,101169.00
2023-03-11T20:47:10.972Z,101169.00
2023-03-11T20:49:43.938Z,101180.00
2023-03-11T20:52:16.874Z,101174.00
2023-03-11T20:54:49.730Z,101188.00
2023-03-11T20:57:22.629Z,101181.00
2023-03-11T20:59:56.029Z,101186.00
2023-03-11T21:02:29.072Z,101183.00
2023-03-11T21:05:02.503Z,101194.00
2023-03-11T21:07:35.876Z,101197.00
2023-03-11T21:10:10.897Z,101194.00
2023-03-11T21:12:43.901Z,101192.00
2023-03-11T21:15:17.272Z,101188.00
2023-03-11T21:17:50.438Z,101193.00
2023-03-11T21:20:23.390Z,101200.00
2023-03-11T21:22:56.329Z,101200.00
2023-03-11T21:25:30.463Z,101197.00
2023-03-11T21:28:07.843Z,101197.00
2023-03-11T21:30:44.755Z,101200.00
2023-03-11T21:33:17.670Z,101203.00
2023-03-11T21:35:52.762Z,101205.00
2023-03-11T21:38:26.294Z,101214.00
2023-03-11T21:41:00.295Z,101201.00
2023-03-11T21:43:37.586Z,101196.00
2023-03-11T21:46:11.800Z,101195.00
2023-03-11T21:48:44.937Z,101193.00
2023-03-11T21:51:18.391Z,101201.00
2023-03-11T21:53:52.303Z,101197.00
2023-03-11T21:56:25.479Z,101186.00
2023-03-11T21:58:58.595Z,101193.00
2023-03-11T22:01:31.559Z,101202.00
2023-03-11T22:04:05.251Z,101188.00
2023-03-11T22:06:39.549Z,101193.00
2023-03-11T22:09:13.278Z,101195.00
2023-03-11T22:11:46.484Z,101188.00
2023-03-11T22:14:19.531Z,101183.00
2023-03-11T22:16:52.781Z,101191.00
2023-03-11T22:19:25.884Z,101176.00
2023-03-11T22:22:03.667Z,101181.00
2023-03-11T22:24:36.557Z,101181.00
2023-03-11T22:27:14.119Z,101177.00
2023-03-11T22:29:47.231Z,101172.00
2023-03-11T22:32:20.285Z,101185.00
2023-03-11T22:34:53.404Z,101181.00
2023-03-11T22:37:26.326Z,101186.00
2023-03-11T22:39:59.304Z,101190.00
2023-03-11T22:42:32.311Z,101187.00
2023-03-11T22:45:05.666Z,101188.00
2023-03-11T22:47:39.146Z,101192.00
2023-03-11T22:50:12.540Z,101189.00
2023-03-11T22:52:49.929Z,101187.00
2023-03-11T22:55:23.291Z,101188.00
2023-03-11T22:57:56.057Z,101178.00
2023-03-11T23:00:29.191Z,101176.00
2023-03-11T23:03:02.300Z,101172.00
2023-03-11T23:05:37.577Z,101184.00
2023-03-11T23:08:12.695Z,101178.00
2023-03-11T23:10:50.374Z,101168.00
2023-03-11T23:13:23.302Z,101164.00
2023-03-11T23:15:56.276Z,101160.00
2023-03-11T23:18:29.353Z,101160.00
2023-03-11T23:21:02.641Z,101164.00
2023-03-11T23:23:37.983Z,101160.00
2023-03-11T23:26:12.471Z,101157.00
2023-03-11T23:28:46.431Z,101155.00
2023-03-11T23:31:21.174Z,101147.00
2023-03-11T23:33:54.921Z,101139.00
2023-03-11T23:36:33.288Z,101146.00
2023-03-11T23:39:06.624Z,101132.00
2023-03-11T23:41:40.273Z,101129.00
2023-03-11T23:44:13.263Z,101129.00
2023-03-11T23:46:46.217Z,101125.00
2023-03-11T23:49:19.247Z,101114.00
2023-03-11T23:51:52.157Z,101113.00
2023-03-11T23:54:25.070Z,101104.00
2023-03-11T23:57:02.258Z,101101.00
2023-03-11T23:59:35.249Z,101106.00
